Big Bear Station Historical Data
Daily Summary for April 7, 2017 Units:  English    Metric   Both
« Previous Day
Next Day »
Daily Weekly Monthly Yearly Custom
  High: Low: Average:
Temperature: 60.8 °F 41.0 °F 48.4 °F
Dew Point: 33.5 °F -7.8 °F 12.3 °F
Humidity: 59 % 11 % 26 %
Wind Speed: 16.1 mph 0.0 mph 3.4 mph
Wind Gust: -999.0 mph - -
Wind:- - SSW
Pressure: 30.18 in 30.08 in -
Precipitation: 0.00 in    
Historical Graphs
 
 
Tabular Data for April 7, 2017
Time Temperature Dew Point Pressure Wind Wind Speed Wind Gust Humidity Rainfall Rate (Hourly)
00:00 46.2 °F 8.4 °F 30.15 in ENE 2.2 mph -999.0 mph 21 % 0 in
00:15 47.1 °F -3.0 °F 30.15 in WSW 1.7 mph -999.0 mph 12 % 0 in
00:30 46.8 °F 1.5 °F 30.16 in Calm   -999.0 mph 15 % 0 in
00:45 45.7 °F 18.2 °F 30.16 in Calm   -999.0 mph 33 % 0 in
01:01 44.6 °F 20.5 °F 30.17 in WNW 1.1 mph -999.0 mph 38 % 0 in
01:16 43.7 °F 18.5 °F 30.16 in Calm   -999.0 mph 36 % 0 in
01:32 43.5 °F 14.1 °F 30.16 in SSE 1.7 mph -999.0 mph 30 % 0 in
01:47 44.1 °F 3.2 °F 30.15 in ESE 1.7 mph -999.0 mph 18 % 0 in
02:02 45.0 °F -4.7 °F 30.14 in NNE 3.7 mph -999.0 mph 12 % 0 in
02:17 45.5 °F -4.3 °F 30.14 in SSE 4.2 mph -999.0 mph 12 % 0 in
02:32 45.3 °F -6.2 °F 30.14 in South 2.7 mph -999.0 mph 11 % 0 in
02:48 45.1 °F -2.9 °F 30.14 in South 1.7 mph -999.0 mph 13 % 0 in
03:03 44.6 °F -0.3 °F 30.14 in SW 2.7 mph -999.0 mph 15 % 0 in
03:18 44.2 °F -0.6 °F 30.14 in SW 2.7 mph -999.0 mph 15 % 0 in
03:34 44.1 °F -3.7 °F 30.14 in WNW 2.2 mph -999.0 mph 13 % 0 in
03:49 43.9 °F -2.3 °F 30.14 in WNW 2.2 mph -999.0 mph 14 % 0 in
04:04 43.5 °F -4.2 °F 30.14 in SSE 2.2 mph -999.0 mph 13 % 0 in
04:19 43.5 °F -4.2 °F 30.14 in NNW 2.7 mph -999.0 mph 13 % 0 in
04:34 43.3 °F -4.3 °F 30.14 in WSW 1.1 mph -999.0 mph 13 % 0 in
04:50 43.3 °F -7.8 °F 30.14 in SW 2.7 mph -999.0 mph 11 % 0 in
05:05 43.5 °F -7.6 °F 30.14 in WSW 3.7 mph -999.0 mph 11 % 0 in
05:20 43.3 °F -7.8 °F 30.14 in NW 5.8 mph -999.0 mph 11 % 0 in
05:35 43.5 °F -5.8 °F 30.14 in WNW 3.2 mph -999.0 mph 12 % 0 in
05:50 43.3 °F -6.0 °F 30.14 in NW 1.7 mph -999.0 mph 12 % 0 in
06:06 43.5 °F 0.2 °F 30.14 in SW 2.7 mph -999.0 mph 16 % 0 in
06:22 44.1 °F 6.6 °F 30.14 in SSW 1.7 mph -999.0 mph 21 % 0 in
06:37 44.1 °F 7.6 °F 30.15 in WSW 1.7 mph -999.0 mph 22 % 0 in
06:53 44.2 °F 11.4 °F 30.15 in SSW 1.7 mph -999.0 mph 26 % 0 in
07:08 45.0 °F 11.2 °F 30.16 in West 2.7 mph -999.0 mph 25 % 0 in
07:23 45.1 °F 12.2 °F 30.16 in SW 1.7 mph -999.0 mph 26 % 0 in
07:38 45.3 °F 14.1 °F 30.16 in SSW 3.2 mph -999.0 mph 28 % 0 in
07:53 45.5 °F 15.1 °F 30.16 in NNE 2.2 mph -999.0 mph 29 % 0 in
08:09 45.9 °F 14.6 °F 30.16 in WNW 1.1 mph -999.0 mph 28 % 0 in
08:24 46.2 °F 15.7 °F 30.16 in SW 1.7 mph -999.0 mph 29 % 0 in
08:39 47.1 °F 14.8 °F 30.16 in SE 2.7 mph -999.0 mph 27 % 0 in
08:54 48.6 °F 16.9 °F 30.16 in SSE 2.7 mph -999.0 mph 28 % 0 in
09:09 50.0 °F 15.5 °F 30.16 in WNW 3.7 mph -999.0 mph 25 % 0 in
09:25 52.0 °F 15.3 °F 30.16 in NW 4.7 mph -999.0 mph 23 % 0 in
09:40 53.1 °F 11.9 °F 30.17 in NW 1.1 mph -999.0 mph 19 % 0 in
09:55 53.4 °F 12.1 °F 30.17 in SW 1.1 mph -999.0 mph 19 % 0 in
10:10 53.2 °F 10.7 °F 30.18 in SSE 2.7 mph -999.0 mph 18 % 0 in
10:25 53.4 °F 6.8 °F 30.18 in West 4.2 mph -999.0 mph 15 % 0 in
10:41 53.8 °F 8.6 °F 30.18 in ENE 3.7 mph -999.0 mph 16 % 0 in
10:56 53.8 °F 7.2 °F 30.18 in NE 2.2 mph -999.0 mph 15 % 0 in
11:11 53.4 °F 5.3 °F 30.18 in SSW 4.2 mph -999.0 mph 14 % 0 in
11:26 53.6 °F 3.9 °F 30.18 in SSE 4.2 mph -999.0 mph 13 % 0 in
11:42 53.8 °F 5.7 °F 30.17 in SE 2.2 mph -999.0 mph 14 % 0 in
11:57 54.9 °F 8.1 °F 30.18 in NNW 4.2 mph -999.0 mph 15 % 0 in
12:12 54.7 °F 7.9 °F 30.17 in SSE 11.9 mph -999.0 mph 15 % 0 in
12:27 55.6 °F 11.4 °F 30.17 in SE 5.8 mph -999.0 mph 17 % 0 in
12:42 55.9 °F 13.0 °F 30.16 in SSW 5.3 mph -999.0 mph 18 % 0 in
12:58 56.3 °F 12.0 °F 30.16 in South 15.0 mph -999.0 mph 17 % 0 in
13:13 59.4 °F 18.3 °F 30.16 in East 5.3 mph -999.0 mph 20 % 0 in
13:28 59.7 °F 18.5 °F 30.15 in SW 6.8 mph -999.0 mph 20 % 0 in
13:44 60.4 °F 22.4 °F 30.15 in South 16.1 mph -999.0 mph 23 % 0 in
13:59 57.4 °F 21.8 °F 30.15 in NNE 1.7 mph -999.0 mph 25 % 0 in
14:15 60.8 °F 23.8 °F 30.15 in West 5.3 mph -999.0 mph 24 % 0 in
14:30 60.3 °F 22.3 °F 30.14 in NW 16.1 mph -999.0 mph 23 % 0 in
14:45 59.9 °F 23.0 °F 30.14 in North 5.8 mph -999.0 mph 24 % 0 in
15:00 59.9 °F 22.0 °F 30.13 in WSW 5.8 mph -999.0 mph 23 % 0 in
15:17 59.5 °F 20.6 °F 30.13 in NNE 4.7 mph -999.0 mph 22 % 0 in
15:32 58.6 °F 18.8 °F 30.13 in NNE 3.7 mph -999.0 mph 21 % 0 in
15:47 58.3 °F 19.6 °F 30.13 in NW 3.2 mph -999.0 mph 22 % 0 in
16:02 58.1 °F 21.5 °F 30.12 in NNE 5.3 mph -999.0 mph 24 % 0 in
16:17 55.0 °F 20.7 °F 30.12 in NNE 1.7 mph -999.0 mph 26 % 0 in
16:33 55.0 °F 24.1 °F 30.11 in WSW 5.8 mph -999.0 mph 30 % 0 in
16:48 54.0 °F 26.2 °F 30.12 in NNE 1.7 mph -999.0 mph 34 % 0 in
17:03 54.7 °F 28.9 °F 30.11 in SE 6.8 mph -999.0 mph 37 % 0 in
17:18 54.0 °F 30.8 °F 30.11 in SSE 2.7 mph -999.0 mph 41 % 0 in
17:34 52.9 °F 32.1 °F 30.11 in WNW 4.2 mph -999.0 mph 45 % 0 in
17:49 50.9 °F 32.9 °F 30.11 in SSE 8.9 mph -999.0 mph 50 % 0 in
18:04 50.0 °F 33.5 °F 30.10 in NW 5.3 mph -999.0 mph 53 % 0 in
18:19 49.5 °F 33.5 °F 30.10 in NW 2.7 mph -999.0 mph 54 % 0 in
18:34 48.0 °F 33.0 °F 30.10 in SSW 1.7 mph -999.0 mph 56 % 0 in
18:50 46.9 °F 32.9 °F 30.10 in South 1.7 mph -999.0 mph 58 % 0 in
19:05 45.7 °F 32.2 °F 30.10 in Calm   -999.0 mph 59 % 0 in
19:20 44.2 °F 30.8 °F 30.10 in NNW 1.1 mph -999.0 mph 59 % 0 in
19:35 43.3 °F 29.5 °F 30.10 in Calm   -999.0 mph 58 % 0 in
19:50 42.6 °F 27.6 °F 30.10 in NNW 2.2 mph -999.0 mph 55 % 0 in
20:06 42.1 °F 25.3 °F 30.09 in NNW 3.7 mph -999.0 mph 51 % 0 in
20:21 41.9 °F 24.6 °F 30.09 in Calm   -999.0 mph 50 % 0 in
20:36 41.5 °F 22.8 °F 30.09 in South 1.1 mph -999.0 mph 47 % 0 in
20:51 41.4 °F 18.9 °F 30.09 in WNW 1.1 mph -999.0 mph 40 % 0 in
21:06 41.5 °F 17.1 °F 30.09 in WNW 2.2 mph -999.0 mph 37 % 0 in
21:22 41.5 °F 13.1 °F 30.09 in South 3.2 mph -999.0 mph 31 % 0 in
21:37 41.2 °F 7.1 °F 30.09 in East 2.2 mph -999.0 mph 24 % 0 in
21:52 41.4 °F 4.3 °F 30.09 in Calm   -999.0 mph 21 % 0 in
22:07 41.5 °F 2.2 °F 30.09 in SSW 4.2 mph -999.0 mph 19 % 0 in
22:22 41.2 °F 4.2 °F 30.09 in SSW 1.7 mph -999.0 mph 21 % 0 in
22:38 41.0 °F 2.9 °F 30.09 in South 2.2 mph -999.0 mph 20 % 0 in
22:53 41.2 °F 2.0 °F 30.09 in SSW 5.8 mph -999.0 mph 19 % 0 in
23:08 41.2 °F 3.1 °F 30.09 in SSW 2.2 mph -999.0 mph 20 % 0 in
23:23 41.0 °F 2.9 °F 30.08 in SW 2.7 mph -999.0 mph 20 % 0 in
23:39 41.4 °F 3.3 °F 30.08 in SSW 2.2 mph -999.0 mph 20 % 0 in
23:54 41.9 °F 5.8 °F 30.08 in ESE 5.8 mph -999.0 mph 22 % 0 in
Big Bear CA Weather
Compliments of Weather Underground - 1.5 mb